sensor_id;sensor_type;location;lat;lon;timestamp;P1;P2;P0
63305;PMS5003;50735;52.060;1.248;2022-12-08T00:02:25;29;29;
63305;PMS5003;50735;52.060;1.248;2022-12-08T00:04:52;31;25;
63305;PMS5003;50735;52.060;1.248;2022-12-08T00:07:19;31;23;
63305;PMS5003;50735;52.060;1.248;2022-12-08T00:09:46;30;24;
63305;PMS5003;50735;52.060;1.248;2022-12-08T00:12:14;44;36;
63305;PMS5003;50735;52.060;1.248;2022-12-08T00:14:42;33;31;
63305;PMS5003;50735;52.060;1.248;2022-12-08T00:17:11;36;35;
63305;PMS5003;50735;52.060;1.248;2022-12-08T00:19:40;38;35;
63305;PMS5003;50735;52.060;1.248;2022-12-08T00:22:08;40;37;
63305;PMS5003;50735;52.060;1.248;2022-12-08T00:24:37;39;33;
63305;PMS5003;50735;52.060;1.248;2022-12-08T00:27:06;56;54;
63305;PMS5003;50735;52.060;1.248;2022-12-08T00:29:34;34;29;
63305;PMS5003;50735;52.060;1.248;2022-12-08T00:32:01;41;38;
63305;PMS5003;50735;52.060;1.248;2022-12-08T00:34:29;27;27;
63305;PMS5003;50735;52.060;1.248;2022-12-08T00:36:56;35;34;
63305;PMS5003;50735;52.060;1.248;2022-12-08T00:39:23;35;30;
63305;PMS5003;50735;52.060;1.248;2022-12-08T00:41:50;36;28;
63305;PMS5003;50735;52.060;1.248;2022-12-08T00:44:17;37;32;
63305;PMS5003;50735;52.060;1.248;2022-12-08T00:46:44;34;26;
63305;PMS5003;50735;52.060;1.248;2022-12-08T00:49:12;34;25;
63305;PMS5003;50735;52.060;1.248;2022-12-08T00:51:40;39;28;
63305;PMS5003;50735;52.060;1.248;2022-12-08T00:54:08;34;32;
63305;PMS5003;50735;52.060;1.248;2022-12-08T00:56:36;34;28;
63305;PMS5003;50735;52.060;1.248;2022-12-08T00:59:04;33;26;
63305;PMS5003;50735;52.060;1.248;2022-12-08T01:01:32;35;27;
63305;PMS5003;50735;52.060;1.248;2022-12-08T01:04:01;39;28;
63305;PMS5003;50735;52.060;1.248;2022-12-08T01:06:29;38;37;
63305;PMS5003;50735;52.060;1.248;2022-12-08T01:08:56;44;33;
63305;PMS5003;50735;52.060;1.248;2022-12-08T01:11:23;38;32;
63305;PMS5003;50735;52.060;1.248;2022-12-08T01:13:50;27;26;
63305;PMS5003;50735;52.060;1.248;2022-12-08T01:16:17;39;33;
63305;PMS5003;50735;52.060;1.248;2022-12-08T01:18:45;37;33;
63305;PMS5003;50735;52.060;1.248;2022-12-08T01:21:12;30;28;
63305;PMS5003;50735;52.060;1.248;2022-12-08T01:23:38;37;31;
63305;PMS5003;50735;52.060;1.248;2022-12-08T01:26:06;45;37;
63305;PMS5003;50735;52.060;1.248;2022-12-08T01:28:35;38;28;
63305;PMS5003;50735;52.060;1.248;2022-12-08T01:31:02;34;30;
63305;PMS5003;50735;52.060;1.248;2022-12-08T01:33:29;35;28;
63305;PMS5003;50735;52.060;1.248;2022-12-08T01:36:01;44;33;
63305;PMS5003;50735;52.060;1.248;2022-12-08T01:38:28;27;25;
63305;PMS5003;50735;52.060;1.248;2022-12-08T01:40:56;33;26;
63305;PMS5003;50735;52.060;1.248;2022-12-08T01:43:23;44;31;
63305;PMS5003;50735;52.060;1.248;2022-12-08T01:45:50;41;37;
63305;PMS5003;50735;52.060;1.248;2022-12-08T01:48:17;39;34;
63305;PMS5003;50735;52.060;1.248;2022-12-08T01:50:47;37;28;
63305;PMS5003;50735;52.060;1.248;2022-12-08T01:53:15;39;31;
63305;PMS5003;50735;52.060;1.248;2022-12-08T01:55:46;38;34;
63305;PMS5003;50735;52.060;1.248;2022-12-08T01:58:17;40;36;
63305;PMS5003;50735;52.060;1.248;2022-12-08T02:00:46;31;27;
63305;PMS5003;50735;52.060;1.248;2022-12-08T02:03:15;41;31;
63305;PMS5003;50735;52.060;1.248;2022-12-08T02:05:47;32;28;
63305;PMS5003;50735;52.060;1.248;2022-12-08T02:08:14;35;33;
63305;PMS5003;50735;52.060;1.248;2022-12-08T02:10:42;39;36;
63305;PMS5003;50735;52.060;1.248;2022-12-08T02:13:09;32;29;
63305;PMS5003;50735;52.060;1.248;2022-12-08T02:15:41;38;31;
63305;PMS5003;50735;52.060;1.248;2022-12-08T02:18:29;43;35;
63305;PMS5003;50735;52.060;1.248;2022-12-08T02:21:09;36;27;
63305;PMS5003;50735;52.060;1.248;2022-12-08T02:23:43;38;32;
63305;PMS5003;50735;52.060;1.248;2022-12-08T02:26:37;42;33;
63305;PMS5003;50735;52.060;1.248;2022-12-08T02:29:44;49;38;
63305;PMS5003;50735;52.060;1.248;2022-12-08T02:32:31;36;31;
63305;PMS5003;50735;52.060;1.248;2022-12-08T02:35:11;39;32;
63305;PMS5003;50735;52.060;1.248;2022-12-08T02:37:42;38;30;
63305;PMS5003;50735;52.060;1.248;2022-12-08T02:40:16;39;29;
63305;PMS5003;50735;52.060;1.248;2022-12-08T02:40:22;39;29;
63305;PMS5003;50735;52.060;1.248;2022-12-08T02:42:54;37;27;
63305;PMS5003;50735;52.060;1.248;2022-12-08T02:45:24;41;30;
63305;PMS5003;50735;52.060;1.248;2022-12-08T02:47:54;45;34;
63305;PMS5003;50735;52.060;1.248;2022-12-08T02:50:24;38;34;
63305;PMS5003;50735;52.060;1.248;2022-12-08T02:52:52;37;32;
63305;PMS5003;50735;52.060;1.248;2022-12-08T02:55:21;38;35;
63305;PMS5003;50735;52.060;1.248;2022-12-08T02:59:01;35;31;
63305;PMS5003;50735;52.060;1.248;2022-12-08T03:01:41;33;27;
63305;PMS5003;50735;52.060;1.248;2022-12-08T03:04:18;31;27;
63305;PMS5003;50735;52.060;1.248;2022-12-08T03:06:52;38;31;
63305;PMS5003;50735;52.060;1.248;2022-12-08T03:09:29;43;30;
63305;PMS5003;50735;52.060;1.248;2022-12-08T03:12:01;43;30;
63305;PMS5003;50735;52.060;1.248;2022-12-08T03:14:35;37;32;
63305;PMS5003;50735;52.060;1.248;2022-12-08T03:17:04;39;35;
63305;PMS5003;50735;52.060;1.248;2022-12-08T03:19:34;43;36;
63305;PMS5003;50735;52.060;1.248;2022-12-08T03:22:04;48;34;
63305;PMS5003;50735;52.060;1.248;2022-12-08T03:24:33;31;30;
63305;PMS5003;50735;52.060;1.248;2022-12-08T03:27:02;46;35;
63305;PMS5003;50735;52.060;1.248;2022-12-08T03:29:32;41;34;
63305;PMS5003;50735;52.060;1.248;2022-12-08T03:32:00;38;37;
63305;PMS5003;50735;52.060;1.248;2022-12-08T03:34:33;46;34;
63305;PMS5003;50735;52.060;1.248;2022-12-08T03:37:01;32;28;
63305;PMS5003;50735;52.060;1.248;2022-12-08T03:39:28;46;35;
63305;PMS5003;50735;52.060;1.248;2022-12-08T03:41:55;38;35;
63305;PMS5003;50735;52.060;1.248;2022-12-08T03:44:22;37;34;
63305;PMS5003;50735;52.060;1.248;2022-12-08T03:46:48;28;26;
63305;PMS5003;50735;52.060;1.248;2022-12-08T03:49:15;34;29;
63305;PMS5003;50735;52.060;1.248;2022-12-08T03:51:42;26;25;
63305;PMS5003;50735;52.060;1.248;2022-12-08T03:54:09;32;25;
63305;PMS5003;50735;52.060;1.248;2022-12-08T03:56:36;36;26;
63305;PMS5003;50735;52.060;1.248;2022-12-08T03:59:04;25;24;
63305;PMS5003;50735;52.060;1.248;2022-12-08T04:01:33;37;30;
63305;PMS5003;50735;52.060;1.248;2022-12-08T04:04:00;40;27;
63305;PMS5003;50735;52.060;1.248;2022-12-08T04:06:26;41;32;
63305;PMS5003;50735;52.060;1.248;2022-12-08T04:08:53;36;29;
63305;PMS5003;50735;52.060;1.248;2022-12-08T04:11:21;31;28;
63305;PMS5003;50735;52.060;1.248;2022-12-08T04:13:48;34;26;
63305;PMS5003;50735;52.060;1.248;2022-12-08T04:16:15;28;28;
63305;PMS5003;50735;52.060;1.248;2022-12-08T04:18:44;28;26;
63305;PMS5003;50735;52.060;1.248;2022-12-08T04:21:11;33;31;
63305;PMS5003;50735;52.060;1.248;2022-12-08T04:23:39;27;24;
63305;PMS5003;50735;52.060;1.248;2022-12-08T04:26:06;34;29;
63305;PMS5003;50735;52.060;1.248;2022-12-08T04:28:33;31;31;
63305;PMS5003;50735;52.060;1.248;2022-12-08T04:31:00;25;23;
63305;PMS5003;50735;52.060;1.248;2022-12-08T04:33:27;35;28;
63305;PMS5003;50735;52.060;1.248;2022-12-08T04:35:54;41;31;
63305;PMS5003;50735;52.060;1.248;2022-12-08T04:38:21;34;30;
63305;PMS5003;50735;52.060;1.248;2022-12-08T04:40:48;35;25;
63305;PMS5003;50735;52.060;1.248;2022-12-08T04:43:15;28;26;
63305;PMS5003;50735;52.060;1.248;2022-12-08T04:45:42;42;35;
63305;PMS5003;50735;52.060;1.248;2022-12-08T04:48:09;35;30;
63305;PMS5003;50735;52.060;1.248;2022-12-08T04:50:37;39;31;
63305;PMS5003;50735;52.060;1.248;2022-12-08T04:53:05;38;31;
63305;PMS5003;50735;52.060;1.248;2022-12-08T04:55:32;42;30;
63305;PMS5003;50735;52.060;1.248;2022-12-08T04:57:59;39;31;
63305;PMS5003;50735;52.060;1.248;2022-12-08T05:00:25;41;31;
63305;PMS5003;50735;52.060;1.248;2022-12-08T05:02:52;45;38;
63305;PMS5003;50735;52.060;1.248;2022-12-08T05:05:19;31;29;
63305;PMS5003;50735;52.060;1.248;2022-12-08T05:07:46;39;35;
63305;PMS5003;50735;52.060;1.248;2022-12-08T05:10:14;36;33;
63305;PMS5003;50735;52.060;1.248;2022-12-08T05:12:40;37;31;
63305;PMS5003;50735;52.060;1.248;2022-12-08T05:15:07;36;31;
63305;PMS5003;50735;52.060;1.248;2022-12-08T05:17:34;35;29;
63305;PMS5003;50735;52.060;1.248;2022-12-08T05:20:02;35;29;
63305;PMS5003;50735;52.060;1.248;2022-12-08T05:22:29;41;33;
63305;PMS5003;50735;52.060;1.248;2022-12-08T05:24:55;42;35;
63305;PMS5003;50735;52.060;1.248;2022-12-08T05:27:22;51;45;
63305;PMS5003;50735;52.060;1.248;2022-12-08T05:29:49;40;34;
63305;PMS5003;50735;52.060;1.248;2022-12-08T05:32:17;44;34;
63305;PMS5003;50735;52.060;1.248;2022-12-08T05:34:43;42;35;
63305;PMS5003;50735;52.060;1.248;2022-12-08T05:37:10;39;32;
63305;PMS5003;50735;52.060;1.248;2022-12-08T05:39:36;45;33;
63305;PMS5003;50735;52.060;1.248;2022-12-08T05:42:04;42;34;
63305;PMS5003;50735;52.060;1.248;2022-12-08T05:44:31;40;31;
63305;PMS5003;50735;52.060;1.248;2022-12-08T05:46:58;50;36;
63305;PMS5003;50735;52.060;1.248;2022-12-08T05:49:25;33;29;
63305;PMS5003;50735;52.060;1.248;2022-12-08T05:51:51;44;38;
63305;PMS5003;50735;52.060;1.248;2022-12-08T05:54:18;45;36;
63305;PMS5003;50735;52.060;1.248;2022-12-08T05:56:45;36;30;
63305;PMS5003;50735;52.060;1.248;2022-12-08T05:59:12;41;38;
63305;PMS5003;50735;52.060;1.248;2022-12-08T06:01:39;34;29;
63305;PMS5003;50735;52.060;1.248;2022-12-08T06:04:06;44;36;
63305;PMS5003;50735;52.060;1.248;2022-12-08T06:06:34;36;33;
63305;PMS5003;50735;52.060;1.248;2022-12-08T06:09:01;33;31;
63305;PMS5003;50735;52.060;1.248;2022-12-08T06:11:28;36;30;
63305;PMS5003;50735;52.060;1.248;2022-12-08T06:13:57;37;29;
63305;PMS5003;50735;52.060;1.248;2022-12-08T06:16:25;36;35;
63305;PMS5003;50735;52.060;1.248;2022-12-08T06:18:53;29;28;
63305;PMS5003;50735;52.060;1.248;2022-12-08T06:21:20;29;25;
63305;PMS5003;50735;52.060;1.248;2022-12-08T06:23:48;28;24;
63305;PMS5003;50735;52.060;1.248;2022-12-08T06:26:15;30;26;
63305;PMS5003;50735;52.060;1.248;2022-12-08T06:28:43;31;23;
63305;PMS5003;50735;52.060;1.248;2022-12-08T06:31:12;31;25;
63305;PMS5003;50735;52.060;1.248;2022-12-08T06:33:40;30;26;
63305;PMS5003;50735;52.060;1.248;2022-12-08T06:36:09;30;28;
63305;PMS5003;50735;52.060;1.248;2022-12-08T06:38:37;36;27;
63305;PMS5003;50735;52.060;1.248;2022-12-08T06:41:04;34;24;
63305;PMS5003;50735;52.060;1.248;2022-12-08T06:43:31;25;25;
63305;PMS5003;50735;52.060;1.248;2022-12-08T06:45:59;32;27;
63305;PMS5003;50735;52.060;1.248;2022-12-08T06:48:25;29;24;
63305;PMS5003;50735;52.060;1.248;2022-12-08T06:50:52;30;30;
63305;PMS5003;50735;52.060;1.248;2022-12-08T06:53:19;26;22;
63305;PMS5003;50735;52.060;1.248;2022-12-08T06:55:46;33;23;
63305;PMS5003;50735;52.060;1.248;2022-12-08T06:58:17;27;23;
63305;PMS5003;50735;52.060;1.248;2022-12-08T07:00:44;32;25;
63305;PMS5003;50735;52.060;1.248;2022-12-08T07:03:11;31;26;
63305;PMS5003;50735;52.060;1.248;2022-12-08T07:05:39;30;26;
63305;PMS5003;50735;52.060;1.248;2022-12-08T07:08:06;24;23;
63305;PMS5003;50735;52.060;1.248;2022-12-08T07:10:34;30;27;
63305;PMS5003;50735;52.060;1.248;2022-12-08T07:13:01;27;26;
63305;PMS5003;50735;52.060;1.248;2022-12-08T07:15:28;26;25;
63305;PMS5003;50735;52.060;1.248;2022-12-08T07:17:55;25;24;
63305;PMS5003;50735;52.060;1.248;2022-12-08T07:20:22;30;27;
63305;PMS5003;50735;52.060;1.248;2022-12-08T07:22:49;28;27;
63305;PMS5003;50735;52.060;1.248;2022-12-08T07:25:17;26;23;
63305;PMS5003;50735;52.060;1.248;2022-12-08T07:27:45;26;21;
63305;PMS5003;50735;52.060;1.248;2022-12-08T07:30:12;31;25;
63305;PMS5003;50735;52.060;1.248;2022-12-08T07:32:39;26;23;
63305;PMS5003;50735;52.060;1.248;2022-12-08T07:35:07;24;19;
63305;PMS5003;50735;52.060;1.248;2022-12-08T07:37:35;30;27;
63305;PMS5003;50735;52.060;1.248;2022-12-08T07:40:03;27;23;
63305;PMS5003;50735;52.060;1.248;2022-12-08T07:42:32;35;27;
63305;PMS5003;50735;52.060;1.248;2022-12-08T07:44:59;27;24;
63305;PMS5003;50735;52.060;1.248;2022-12-08T07:47:26;35;30;
63305;PMS5003;50735;52.060;1.248;2022-12-08T07:49:53;30;24;
63305;PMS5003;50735;52.060;1.248;2022-12-08T07:52:20;27;26;
63305;PMS5003;50735;52.060;1.248;2022-12-08T07:54:47;32;31;
63305;PMS5003;50735;52.060;1.248;2022-12-08T07:57:13;31;31;
63305;PMS5003;50735;52.060;1.248;2022-12-08T07:59:41;32;29;
63305;PMS5003;50735;52.060;1.248;2022-12-08T08:02:11;32;30;
63305;PMS5003;50735;52.060;1.248;2022-12-08T08:04:42;31;31;
63305;PMS5003;50735;52.060;1.248;2022-12-08T08:07:09;27;26;
63305;PMS5003;50735;52.060;1.248;2022-12-08T08:09:37;29;25;
63305;PMS5003;50735;52.060;1.248;2022-12-08T08:12:04;27;22;
63305;PMS5003;50735;52.060;1.248;2022-12-08T08:14:31;30;24;
63305;PMS5003;50735;52.060;1.248;2022-12-08T08:16:58;31;26;
63305;PMS5003;50735;52.060;1.248;2022-12-08T08:19:25;33;30;
63305;PMS5003;50735;52.060;1.248;2022-12-08T08:21:52;24;20;
63305;PMS5003;50735;52.060;1.248;2022-12-08T08:24:19;32;25;
63305;PMS5003;50735;52.060;1.248;2022-12-08T08:26:46;24;20;
63305;PMS5003;50735;52.060;1.248;2022-12-08T08:29:13;20;19;
63305;PMS5003;50735;52.060;1.248;2022-12-08T08:31:40;25;24;
63305;PMS5003;50735;52.060;1.248;2022-12-08T08:34:07;33;31;
63305;PMS5003;50735;52.060;1.248;2022-12-08T08:36:34;32;27;
63305;PMS5003;50735;52.060;1.248;2022-12-08T08:39:01;26;20;
63305;PMS5003;50735;52.060;1.248;2022-12-08T08:41:29;30;21;
63305;PMS5003;50735;52.060;1.248;2022-12-08T08:43:56;27;24;
63305;PMS5003;50735;52.060;1.248;2022-12-08T08:46:22;31;27;
63305;PMS5003;50735;52.060;1.248;2022-12-08T08:48:49;35;27;
63305;PMS5003;50735;52.060;1.248;2022-12-08T08:51:16;27;23;
63305;PMS5003;50735;52.060;1.248;2022-12-08T08:53:43;29;29;
63305;PMS5003;50735;52.060;1.248;2022-12-08T08:56:10;30;23;
63305;PMS5003;50735;52.060;1.248;2022-12-08T08:58:38;35;28;
63305;PMS5003;50735;52.060;1.248;2022-12-08T09:01:06;41;40;
63305;PMS5003;50735;52.060;1.248;2022-12-08T09:03:33;38;34;
63305;PMS5003;50735;52.060;1.248;2022-12-08T09:06:00;36;27;
63305;PMS5003;50735;52.060;1.248;2022-12-08T09:08:27;32;30;
63305;PMS5003;50735;52.060;1.248;2022-12-08T09:10:53;31;28;
63305;PMS5003;50735;52.060;1.248;2022-12-08T09:13:20;35;29;
63305;PMS5003;50735;52.060;1.248;2022-12-08T09:15:47;38;29;
63305;PMS5003;50735;52.060;1.248;2022-12-08T09:18:14;32;29;
63305;PMS5003;50735;52.060;1.248;2022-12-08T09:20:41;38;34;
63305;PMS5003;50735;52.060;1.248;2022-12-08T09:23:08;37;27;
63305;PMS5003;50735;52.060;1.248;2022-12-08T09:25:35;25;25;
63305;PMS5003;50735;52.060;1.248;2022-12-08T09:28:02;30;26;
63305;PMS5003;50735;52.060;1.248;2022-12-08T09:30:29;31;22;
63305;PMS5003;50735;52.060;1.248;2022-12-08T09:32:56;29;23;
63305;PMS5003;50735;52.060;1.248;2022-12-08T09:35:22;19;18;
63305;PMS5003;50735;52.060;1.248;2022-12-08T09:37:49;19;19;
63305;PMS5003;50735;52.060;1.248;2022-12-08T09:40:16;26;21;
63305;PMS5003;50735;52.060;1.248;2022-12-08T09:42:48;21;20;
63305;PMS5003;50735;52.060;1.248;2022-12-08T09:45:17;18;18;
63305;PMS5003;50735;52.060;1.248;2022-12-08T09:47:47;18;17;
63305;PMS5003;50735;52.060;1.248;2022-12-08T09:50:28;22;19;
63305;PMS5003;50735;52.060;1.248;2022-12-08T09:52:59;21;20;
63305;PMS5003;50735;52.060;1.248;2022-12-08T09:55:35;24;19;
63305;PMS5003;50735;52.060;1.248;2022-12-08T09:58:09;17;15;
63305;PMS5003;50735;52.060;1.248;2022-12-08T10:00:43;20;15;
63305;PMS5003;50735;52.060;1.248;2022-12-08T10:03:10;21;15;
63305;PMS5003;50735;52.060;1.248;2022-12-08T10:05:40;17;14;
63305;PMS5003;50735;52.060;1.248;2022-12-08T10:08:14;20;16;
63305;PMS5003;50735;52.060;1.248;2022-12-08T10:10:46;14;13;
63305;PMS5003;50735;52.060;1.248;2022-12-08T10:13:19;15;15;
63305;PMS5003;50735;52.060;1.248;2022-12-08T10:15:52;13;13;
63305;PMS5003;50735;52.060;1.248;2022-12-08T10:18:28;15;15;
63305;PMS5003;50735;52.060;1.248;2022-12-08T10:20:57;19;16;
63305;PMS5003;50735;52.060;1.248;2022-12-08T10:23:36;18;18;
63305;PMS5003;50735;52.060;1.248;2022-12-08T10:26:05;14;10;
63305;PMS5003;50735;52.060;1.248;2022-12-08T10:28:37;16;14;
63305;PMS5003;50735;52.060;1.248;2022-12-08T10:31:03;13;10;
63305;PMS5003;50735;52.060;1.248;2022-12-08T10:33:31;12;10;
63305;PMS5003;50735;52.060;1.248;2022-12-08T10:35:59;10;9;
63305;PMS5003;50735;52.060;1.248;2022-12-08T10:38:28;16;12;
63305;PMS5003;50735;52.060;1.248;2022-12-08T10:40:58;10;10;
63305;PMS5003;50735;52.060;1.248;2022-12-08T10:43:29;10;10;
63305;PMS5003;50735;52.060;1.248;2022-12-08T10:46:06;14;11;
63305;PMS5003;50735;52.060;1.248;2022-12-08T10:48:35;10;10;
63305;PMS5003;50735;52.060;1.248;2022-12-08T10:51:02;16;11;
63305;PMS5003;50735;52.060;1.248;2022-12-08T10:53:29;12;10;
63305;PMS5003;50735;52.060;1.248;2022-12-08T10:56:04;16;13;
63305;PMS5003;50735;52.060;1.248;2022-12-08T10:58:33;13;10;
63305;PMS5003;50735;52.060;1.248;2022-12-08T11:01:04;12;11;
63305;PMS5003;50735;52.060;1.248;2022-12-08T11:03:35;11;9;
63305;PMS5003;50735;52.060;1.248;2022-12-08T11:06:11;11;11;
63305;PMS5003;50735;52.060;1.248;2022-12-08T11:08:44;9;9;
63305;PMS5003;50735;52.060;1.248;2022-12-08T11:11:14;13;12;
63305;PMS5003;50735;52.060;1.248;2022-12-08T11:13:42;11;11;
63305;PMS5003;50735;52.060;1.248;2022-12-08T11:16:10;16;13;
63305;PMS5003;50735;52.060;1.248;2022-12-08T11:18:40;11;11;
63305;PMS5003;50735;52.060;1.248;2022-12-08T11:21:10;9;9;
63305;PMS5003;50735;52.060;1.248;2022-12-08T11:23:41;13;12;
63305;PMS5003;50735;52.060;1.248;2022-12-08T11:26:11;8;8;
63305;PMS5003;50735;52.060;1.248;2022-12-08T11:28:45;11;8;
63305;PMS5003;50735;52.060;1.248;2022-12-08T11:31:16;10;10;
63305;PMS5003;50735;52.060;1.248;2022-12-08T11:33:50;13;10;
63305;PMS5003;50735;52.060;1.248;2022-12-08T11:36:17;12;12;
63305;PMS5003;50735;52.060;1.248;2022-12-08T11:38:48;8;8;
63305;PMS5003;50735;52.060;1.248;2022-12-08T11:41:21;9;9;
63305;PMS5003;50735;52.060;1.248;2022-12-08T11:43:54;11;11;
63305;PMS5003;50735;52.060;1.248;2022-12-08T11:46:30;8;8;
63305;PMS5003;50735;52.060;1.248;2022-12-08T11:49:00;9;9;
63305;PMS5003;50735;52.060;1.248;2022-12-08T11:51:29;13;9;
63305;PMS5003;50735;52.060;1.248;2022-12-08T11:54:02;12;9;
63305;PMS5003;50735;52.060;1.248;2022-12-08T11:56:40;18;12;
63305;PMS5003;50735;52.060;1.248;2022-12-08T11:59:12;10;8;
63305;PMS5003;50735;52.060;1.248;2022-12-08T12:01:44;9;8;
63305;PMS5003;50735;52.060;1.248;2022-12-08T12:04:13;9;7;
63305;PMS5003;50735;52.060;1.248;2022-12-08T12:07:01;12;11;
63305;PMS5003;50735;52.060;1.248;2022-12-08T12:09:44;12;11;
63305;PMS5003;50735;52.060;1.248;2022-12-08T12:12:24;12;10;
63305;PMS5003;50735;52.060;1.248;2022-12-08T12:15:10;13;10;
63305;PMS5003;50735;52.060;1.248;2022-12-08T12:17:51;13;9;
63305;PMS5003;50735;52.060;1.248;2022-12-08T12:20:24;9;9;
63305;PMS5003;50735;52.060;1.248;2022-12-08T12:22:55;9;9;
63305;PMS5003;50735;52.060;1.248;2022-12-08T12:25:26;9;8;
63305;PMS5003;50735;52.060;1.248;2022-12-08T12:27:56;8;8;
63305;PMS5003;50735;52.060;1.248;2022-12-08T12:30:26;10;10;
63305;PMS5003;50735;52.060;1.248;2022-12-08T12:33:15;10;9;
63305;PMS5003;50735;52.060;1.248;2022-12-08T12:35:43;8;8;
63305;PMS5003;50735;52.060;1.248;2022-12-08T12:38:17;9;7;
63305;PMS5003;50735;52.060;1.248;2022-12-08T12:40:46;9;8;
63305;PMS5003;50735;52.060;1.248;2022-12-08T12:43:23;8;8;
63305;PMS5003;50735;52.060;1.248;2022-12-08T12:47:00;11;10;
63305;PMS5003;50735;52.060;1.248;2022-12-08T12:50:06;8;8;
63305;PMS5003;50735;52.060;1.248;2022-12-08T12:52:36;12;11;
63305;PMS5003;50735;52.060;1.248;2022-12-08T12:55:53;11;10;
63305;PMS5003;50735;52.060;1.248;2022-12-08T12:58:37;10;9;
63305;PMS5003;50735;52.060;1.248;2022-12-08T13:01:47;8;7;
63305;PMS5003;50735;52.060;1.248;2022-12-08T13:04:19;8;7;
63305;PMS5003;50735;52.060;1.248;2022-12-08T13:06:56;9;8;
63305;PMS5003;50735;52.060;1.248;2022-12-08T13:09:26;9;9;
63305;PMS5003;50735;52.060;1.248;2022-12-08T13:11:57;7;7;
63305;PMS5003;50735;52.060;1.248;2022-12-08T13:14:27;9;7;
63305;PMS5003;50735;52.060;1.248;2022-12-08T13:16:57;10;10;
63305;PMS5003;50735;52.060;1.248;2022-12-08T13:19:27;9;8;
63305;PMS5003;50735;52.060;1.248;2022-12-08T13:21:56;15;12;
63305;PMS5003;50735;52.060;1.248;2022-12-08T13:24:28;10;8;
63305;PMS5003;50735;52.060;1.248;2022-12-08T13:27:31;7;7;
63305;PMS5003;50735;52.060;1.248;2022-12-08T13:31:05;5;5;
63305;PMS5003;50735;52.060;1.248;2022-12-08T13:34:00;14;8;
63305;PMS5003;50735;52.060;1.248;2022-12-08T13:36:32;13;12;
63305;PMS5003;50735;52.060;1.248;2022-12-08T13:39:02;10;10;
63305;PMS5003;50735;52.060;1.248;2022-12-08T13:41:32;6;6;
63305;PMS5003;50735;52.060;1.248;2022-12-08T13:44:04;14;9;
63305;PMS5003;50735;52.060;1.248;2022-12-08T13:46:41;9;9;
63305;PMS5003;50735;52.060;1.248;2022-12-08T13:49:12;10;8;
63305;PMS5003;50735;52.060;1.248;2022-12-08T13:51:44;8;7;
63305;PMS5003;50735;52.060;1.248;2022-12-08T13:54:17;6;6;
63305;PMS5003;50735;52.060;1.248;2022-12-08T13:56:46;9;5;
63305;PMS5003;50735;52.060;1.248;2022-12-08T13:59:23;7;7;
63305;PMS5003;50735;52.060;1.248;2022-12-08T14:01:52;6;6;
63305;PMS5003;50735;52.060;1.248;2022-12-08T14:04:22;9;6;
63305;PMS5003;50735;52.060;1.248;2022-12-08T14:06:50;7;6;
63305;PMS5003;50735;52.060;1.248;2022-12-08T14:09:21;9;6;
63305;PMS5003;50735;52.060;1.248;2022-12-08T14:11:50;7;7;
63305;PMS5003;50735;52.060;1.248;2022-12-08T14:14:21;7;5;
63305;PMS5003;50735;52.060;1.248;2022-12-08T14:16:53;8;7;
63305;PMS5003;50735;52.060;1.248;2022-12-08T14:19:23;6;6;
63305;PMS5003;50735;52.060;1.248;2022-12-08T14:21:55;6;6;
63305;PMS5003;50735;52.060;1.248;2022-12-08T14:24:23;7;5;
63305;PMS5003;50735;52.060;1.248;2022-12-08T14:26:53;9;7;
63305;PMS5003;50735;52.060;1.248;2022-12-08T14:29:31;9;4;
63305;PMS5003;50735;52.060;1.248;2022-12-08T14:32:03;7;7;
63305;PMS5003;50735;52.060;1.248;2022-12-08T14:34:33;6;6;
63305;PMS5003;50735;52.060;1.248;2022-12-08T14:37:01;5;5;
63305;PMS5003;50735;52.060;1.248;2022-12-08T14:39:27;4;4;
63305;PMS5003;50735;52.060;1.248;2022-12-08T14:41:58;5;5;
63305;PMS5003;50735;52.060;1.248;2022-12-08T14:44:25;6;4;
63305;PMS5003;50735;52.060;1.248;2022-12-08T14:47:04;7;5;
63305;PMS5003;50735;52.060;1.248;2022-12-08T14:49:33;9;6;
63305;PMS5003;50735;52.060;1.248;2022-12-08T14:52:02;7;6;
63305;PMS5003;50735;52.060;1.248;2022-12-08T14:54:34;8;5;
63305;PMS5003;50735;52.060;1.248;2022-12-08T14:57:02;8;7;
63305;PMS5003;50735;52.060;1.248;2022-12-08T14:59:30;7;7;
63305;PMS5003;50735;52.060;1.248;2022-12-08T15:02:09;12;8;
63305;PMS5003;50735;52.060;1.248;2022-12-08T15:04:39;5;5;
63305;PMS5003;50735;52.060;1.248;2022-12-08T15:07:11;6;5;
63305;PMS5003;50735;52.060;1.248;2022-12-08T15:09:41;7;5;
63305;PMS5003;50735;52.060;1.248;2022-12-08T15:12:18;9;5;
63305;PMS5003;50735;52.060;1.248;2022-12-08T15:14:53;8;6;
63305;PMS5003;50735;52.060;1.248;2022-12-08T15:17:26;8;8;
63305;PMS5003;50735;52.060;1.248;2022-12-08T15:19:57;9;6;
63305;PMS5003;50735;52.060;1.248;2022-12-08T15:22:25;15;8;
63305;PMS5003;50735;52.060;1.248;2022-12-08T15:24:54;60;57;
63305;PMS5003;50735;52.060;1.248;2022-12-08T15:27:22;132;109;
63305;PMS5003;50735;52.060;1.248;2022-12-08T15:29:50;63;60;
63305;PMS5003;50735;52.060;1.248;2022-12-08T15:32:18;43;38;
63305;PMS5003;50735;52.060;1.248;2022-12-08T15:34:46;118;99;
63305;PMS5003;50735;52.060;1.248;2022-12-08T15:37:17;114;98;
63305;PMS5003;50735;52.060;1.248;2022-12-08T15:39:45;86;81;
63305;PMS5003;50735;52.060;1.248;2022-12-08T15:42:12;19;17;
63305;PMS5003;50735;52.060;1.248;2022-12-08T15:44:40;19;15;
63305;PMS5003;50735;52.060;1.248;2022-12-08T15:47:08;122;103;
63305;PMS5003;50735;52.060;1.248;2022-12-08T15:49:42;140;129;
63305;PMS5003;50735;52.060;1.248;2022-12-08T15:52:11;147;140;
63305;PMS5003;50735;52.060;1.248;2022-12-08T15:54:40;120;114;
63305;PMS5003;50735;52.060;1.248;2022-12-08T15:57:12;86;72;
63305;PMS5003;50735;52.060;1.248;2022-12-08T15:59:44;30;23;
63305;PMS5003;50735;52.060;1.248;2022-12-08T16:02:11;37;35;
63305;PMS5003;50735;52.060;1.248;2022-12-08T16:04:38;24;20;
63305;PMS5003;50735;52.060;1.248;2022-12-08T16:07:06;13;13;
63305;PMS5003;50735;52.060;1.248;2022-12-08T16:09:43;9;7;
63305;PMS5003;50735;52.060;1.248;2022-12-08T16:12:12;12;10;
63305;PMS5003;50735;52.060;1.248;2022-12-08T16:14:40;15;15;
63305;PMS5003;50735;52.060;1.248;2022-12-08T16:17:07;19;13;
63305;PMS5003;50735;52.060;1.248;2022-12-08T16:19:38;21;15;
63305;PMS5003;50735;52.060;1.248;2022-12-08T16:22:05;14;13;
63305;PMS5003;50735;52.060;1.248;2022-12-08T16:24:32;14;12;
63305;PMS5003;50735;52.060;1.248;2022-12-08T16:26:58;16;12;
63305;PMS5003;50735;52.060;1.248;2022-12-08T16:29:25;11;11;
63305;PMS5003;50735;52.060;1.248;2022-12-08T16:31:52;21;18;
63305;PMS5003;50735;52.060;1.248;2022-12-08T16:34:19;13;12;
63305;PMS5003;50735;52.060;1.248;2022-12-08T16:36:45;19;12;
63305;PMS5003;50735;52.060;1.248;2022-12-08T16:39:12;15;12;
63305;PMS5003;50735;52.060;1.248;2022-12-08T16:41:39;11;11;
63305;PMS5003;50735;52.060;1.248;2022-12-08T16:44:06;14;9;